Time;durP1;ratioP1;P1;durP2;ratioP2;P2;SDS_P1;SDS_P2;PMS_P1;PMS_P2;Temp;Humidity;BMP_temperature;BMP_pressure;BME280_temperature;BME280_humidity;BME280_pressure;Samples;Min_cycle;Max_cycle;Signal;HPM_P1;HPM_P2
2022/06/09 00:02:14;;;;;;;12.17;5.20;;;;;15.30;100207.00;;;;4851888;29;20236;-68
2022/06/09 00:05:04;;;;;;;8.30;4.37;;;;;15.20;100204.00;;;;4853860;29;20231;-68
2022/06/09 00:07:51;;;;;;;7.87;4.50;;;;;15.10;100201.00;;;;4856712;29;20319;-67
2022/06/09 00:10:41;;;;;;;8.57;4.37;;;;;15.10;100213.00;;;;4849134;29;20823;-67
2022/06/09 00:13:28;;;;;;;7.83;4.30;;;;;15.20;100206.00;;;;4853452;29;20232;-68
2022/06/09 00:16:15;;;;;;;7.67;4.53;;;;;15.10;100200.00;;;;4852523;29;20296;-67
2022/06/09 00:19:02;;;;;;;7.93;4.60;;;;;15.10;100208.00;;;;4855803;29;20728;-68
2022/06/09 00:21:50;;;;;;;9.63;4.97;;;;;15.10;100211.00;;;;4849316;29;20764;-68
2022/06/09 00:24:36;;;;;;;6.53;4.37;;;;;15.00;100208.00;;;;4850325;29;20232;-68
2022/06/09 00:27:22;;;;;;;6.93;4.57;;;;;15.00;100212.00;;;;4851828;29;20730;-68
2022/06/09 00:30:11;;;;;;;8.03;4.30;;;;;15.00;100206.00;;;;4852169;29;20300;-67
2022/06/09 00:32:57;;;;;;;7.93;4.70;;;;;15.00;100214.00;;;;4848363;29;20250;-68
2022/06/09 00:35:44;;;;;;;6.90;3.80;;;;;14.90;100223.00;;;;4853618;29;20239;-68
2022/06/09 00:38:31;;;;;;;10.43;4.60;;;;;14.90;100212.00;;;;4854153;29;20379;-68
2022/06/09 00:41:18;;;;;;;6.13;4.03;;;;;14.90;100216.00;;;;4850009;29;20239;-68
2022/06/09 00:44:20;;;;;;;7.30;4.83;;;;;14.90;100224.00;;;;4849036;29;20749;-67
2022/06/09 00:47:10;;;;;;;10.97;4.90;;;;;15.10;100228.00;;;;4852376;29;20716;-68
2022/06/09 00:50:00;;;;;;;8.33;4.67;;;;;15.10;100225.00;;;;4847557;29;20356;-68
2022/06/09 00:52:49;;;;;;;9.97;5.17;;;;;15.20;100230.00;;;;4846079;29;20328;-67
2022/06/09 00:55:38;;;;;;;8.27;4.47;;;;;15.20;100235.00;;;;4850582;29;20227;-68
2022/06/09 00:58:25;;;;;;;8.03;4.33;;;;;15.30;100233.00;;;;4849459;29;20247;-68
2022/06/09 01:01:14;;;;;;;9.20;4.40;;;;;15.30;100241.00;;;;4848316;29;20245;-68
2022/06/09 01:04:04;;;;;;;12.43;5.10;;;;;15.30;100241.00;;;;4850084;29;20232;-67
2022/06/09 01:06:54;;;;;;;7.00;4.87;;;;;15.30;100237.00;;;;4849039;29;20243;-68
2022/06/09 01:09:41;;;;;;;8.70;4.80;;;;;15.30;100247.00;;;;4850684;29;20235;-68
2022/06/09 01:12:30;;;;;;;10.80;5.10;;;;;15.30;100250.00;;;;4848881;29;20243;-67
2022/06/09 01:15:20;;;;;;;8.30;4.90;;;;;15.40;100254.00;;;;4851521;29;20303;-67
2022/06/09 01:18:17;;;;;;;8.70;4.20;;;;;15.40;100255.00;;;;4852321;29;20232;-67
2022/06/09 01:21:10;;;;;;;10.40;4.90;;;;;15.40;100261.00;;;;4849366;29;20248;-68
2022/06/09 01:24:20;;;;;;;8.20;4.70;;;;;15.40;100257.00;;;;4847773;29;20391;-67
2022/06/09 01:27:35;;;;;;;9.57;4.33;;;;;15.40;100270.00;;;;4851780;29;20235;-67
2022/06/09 01:30:24;;;;;;;7.20;4.83;;;;;15.40;100265.00;;;;4848698;29;20365;-68
2022/06/09 01:33:21;;;;;;;10.90;4.20;;;;;15.50;100268.00;;;;4852005;29;20737;-68
2022/06/09 01:36:12;;;;;;;10.40;5.10;;;;;15.50;100262.00;;;;4852730;29;20296;-67
2022/06/09 01:38:58;;;;;;;7.30;4.57;;;;;15.50;100267.00;;;;4846051;29;20245;-68
2022/06/09 01:41:49;;;;;;;8.73;4.13;;;;;15.50;100276.00;;;;4850112;29;20255;-68
2022/06/09 01:44:35;;;;;;;7.00;4.07;;;;;15.50;100271.00;;;;4849864;29;20323;-67
2022/06/09 01:47:24;;;;;;;9.13;4.63;;;;;15.50;100282.00;;;;4849596;29;20322;-69
2022/06/09 01:50:17;;;;;;;13.57;4.60;;;;;15.50;100274.00;;;;4851047;29;20921;-67
2022/06/09 01:53:10;;;;;;;7.47;4.10;;;;;15.50;100273.00;;;;4847504;29;20733;-69
2022/06/09 01:56:00;;;;;;;7.70;4.33;;;;;15.50;100282.00;;;;4848953;29;20877;-68
2022/06/09 01:58:51;;;;;;;7.93;4.13;;;;;15.50;100283.00;;;;4849970;29;20255;-68
2022/06/09 02:01:41;;;;;;;6.93;3.70;;;;;15.50;100286.00;;;;4851835;29;20742;-68
2022/06/09 02:04:34;;;;;;;10.40;3.67;;;;;15.50;100286.00;;;;4849707;29;20320;-67
2022/06/09 02:07:22;;;;;;;12.03;3.97;;;;;15.50;100278.00;;;;4851396;29;20614;-67
2022/06/09 02:10:15;;;;;;;9.53;3.53;;;;;15.50;100298.00;;;;4860143;29;20773;-70
2022/06/09 02:13:05;;;;;;;6.50;3.17;;;;;15.50;100291.00;;;;4847022;29;20726;-69
2022/06/09 02:15:55;;;;;;;6.90;3.63;;;;;15.50;100297.00;;;;4845082;29;20235;-68
2022/06/09 02:18:45;;;;;;;5.30;3.37;;;;;15.50;100302.00;;;;4850327;29;20259;-68
2022/06/09 02:21:34;;;;;;;7.67;3.50;;;;;15.60;100294.00;;;;4849684;29;20245;-69
2022/06/09 02:24:22;;;;;;;6.33;3.27;;;;;15.40;100300.00;;;;4851090;29;20270;-69
2022/06/09 02:27:09;;;;;;;7.83;3.53;;;;;15.40;100307.00;;;;4850307;29;20232;-69
2022/06/09 02:29:55;;;;;;;5.30;2.90;;;;;15.50;100322.00;;;;4850902;29;20316;-68
2022/06/09 02:32:42;;;;;;;6.70;3.37;;;;;15.50;100326.00;;;;4852073;29;20300;-68
2022/06/09 02:35:28;;;;;;;7.00;3.13;;;;;15.40;100323.00;;;;4844333;29;20285;-67
2022/06/09 02:38:14;;;;;;;6.80;3.33;;;;;15.40;100324.00;;;;4854465;29;20329;-68
2022/06/09 02:41:02;;;;;;;9.23;2.97;;;;;15.40;100323.00;;;;4847450;29;20744;-68
2022/06/09 02:43:49;;;;;;;6.00;3.13;;;;;15.40;100326.00;;;;4845621;29;20604;-70
2022/06/09 02:46:35;;;;;;;5.37;3.40;;;;;15.40;100324.00;;;;4854096;29;20729;-68
2022/06/09 02:49:22;;;;;;;5.47;2.83;;;;;15.40;100331.00;;;;4853160;29;20367;-69
2022/06/09 02:52:08;;;;;;;5.23;3.27;;;;;15.30;100331.00;;;;4850434;29;20243;-68
2022/06/09 02:54:55;;;;;;;7.20;2.70;;;;;15.40;100331.00;;;;4852097;29;20240;-68
2022/06/09 02:57:43;;;;;;;8.97;2.83;;;;;15.30;100322.00;;;;4852001;29;20308;-68
2022/06/09 03:00:29;;;;;;;9.30;3.50;;;;;15.40;100331.00;;;;4854083;29;20614;-69
2022/06/09 03:03:15;;;;;;;9.27;3.20;;;;;15.30;100321.00;;;;4851190;29;20357;-68
2022/06/09 03:06:03;;;;;;;7.13;3.43;;;;;15.40;100331.00;;;;4845198;29;20264;-70
2022/06/09 03:08:49;;;;;;;4.43;2.57;;;;;15.40;100324.00;;;;4852336;29;20258;-69
2022/06/09 03:11:35;;;;;;;8.53;3.50;;;;;15.40;100331.00;;;;4858575;29;20231;-68
2022/06/09 03:14:23;;;;;;;6.40;3.13;;;;;15.40;100325.00;;;;4853073;29;20239;-68
2022/06/09 03:17:09;;;;;;;10.70;3.43;;;;;15.40;100324.00;;;;4849803;29;20581;-68
2022/06/09 03:19:55;;;;;;;5.90;3.27;;;;;15.30;100322.00;;;;4851304;29;20230;-68
2022/06/09 03:22:42;;;;;;;5.17;3.00;;;;;15.20;100332.00;;;;4854241;29;20280;-69
2022/06/09 03:25:28;;;;;;;6.43;3.43;;;;;15.20;100338.00;;;;4854665;29;20235;-67
2022/06/09 03:28:15;;;;;;;5.40;2.83;;;;;15.20;100335.00;;;;4852882;29;20235;-67
2022/06/09 03:31:03;;;;;;;4.43;2.97;;;;;15.20;100325.00;;;;4850312;29;20732;-68
2022/06/09 03:33:50;;;;;;;7.67;3.37;;;;;15.20;100335.00;;;;4848360;29;20324;-68
2022/06/09 03:36:36;;;;;;;6.60;3.30;;;;;15.20;100335.00;;;;4852098;29;20748;-68
2022/06/09 03:39:23;;;;;;;6.57;3.57;;;;;15.20;100330.00;;;;4853810;29;20236;-69
2022/06/09 03:42:09;;;;;;;6.23;3.60;;;;;15.20;100332.00;;;;4851294;29;20232;-69
2022/06/09 03:44:55;;;;;;;11.17;3.90;;;;;15.30;100341.00;;;;4847498;29;20294;-68
2022/06/09 03:47:44;;;;;;;6.37;3.83;;;;;15.30;100335.00;;;;4853441;29;20331;-69
2022/06/09 03:50:32;;;;;;;8.47;3.97;;;;;15.20;100346.00;;;;4853427;29;20236;-70
2022/06/09 03:53:19;;;;;;;9.53;4.30;;;;;15.30;100351.00;;;;4853897;29;20239;-68
2022/06/09 03:56:06;;;;;;;5.00;3.70;;;;;15.30;100348.00;;;;4850033;29;20227;-68
2022/06/09 03:58:53;;;;;;;9.47;3.60;;;;;15.30;100361.00;;;;4847165;29;20239;-68
2022/06/09 04:01:40;;;;;;;5.93;3.87;;;;;15.30;100356.00;;;;4852654;29;20384;-68
2022/06/09 04:04:27;;;;;;;13.13;4.30;;;;;15.30;100369.00;;;;4852837;29;20239;-68
2022/06/09 04:07:14;;;;;;;6.53;3.57;;;;;15.30;100366.00;;;;4849592;29;20280;-68
2022/06/09 04:10:00;;;;;;;9.10;4.50;;;;;15.40;100381.00;;;;4853755;29;20319;-68
2022/06/09 04:12:46;;;;;;;6.97;3.77;;;;;15.40;100382.00;;;;4853055;29;20281;-68
2022/06/09 04:15:33;;;;;;;13.17;4.30;;;;;15.50;100378.00;;;;4851808;29;20235;-67
2022/06/09 04:18:19;;;;;;;7.20;3.67;;;;;15.50;100389.00;;;;4852581;29;20240;-67
2022/06/09 04:21:06;;;;;;;10.97;4.73;;;;;15.40;100389.00;;;;4853246;29;20243;-68
2022/06/09 04:23:53;;;;;;;8.77;4.50;;;;;15.40;100398.00;;;;4853271;29;20608;-68
2022/06/09 04:26:41;;;;;;;8.10;4.87;;;;;15.40;100393.00;;;;4852506;29;20287;-68
2022/06/09 04:29:28;;;;;;;7.57;4.80;;;;;15.40;100394.00;;;;4853193;29;20721;-68
2022/06/09 04:32:14;;;;;;;11.73;4.90;;;;;15.30;100378.00;;;;4852714;29;20951;-68
2022/06/09 04:35:01;;;;;;;10.13;4.93;;;;;15.30;100401.00;;;;4850520;29;20758;-68
2022/06/09 04:38:01;;;;;;;12.33;4.67;;;;;15.40;100409.00;;;;4852294;29;20315;-68
2022/06/09 04:40:48;;;;;;;9.30;5.73;;;;;15.40;100408.00;;;;4852164;29;20242;-68
2022/06/09 04:43:34;;;;;;;11.90;5.03;;;;;15.30;100415.00;;;;4845116;29;20373;-68
2022/06/09 04:46:23;;;;;;;9.67;5.13;;;;;15.30;100409.00;;;;4852646;29;20251;-68
2022/06/09 04:49:09;;;;;;;12.83;5.43;;;;;15.30;100414.00;;;;4850691;29;20241;-68
2022/06/09 04:51:55;;;;;;;10.60;5.27;;;;;15.30;100422.00;;;;4849915;29;20235;-69
2022/06/09 04:54:43;;;;;;;17.40;6.77;;;;;15.40;100430.00;;;;4850462;29;20730;-68
2022/06/09 04:57:30;;;;;;;10.37;5.87;;;;;15.40;100426.00;;;;4849866;29;20243;-69
2022/06/09 05:00:17;;;;;;;14.03;5.83;;;;;15.40;100436.00;;;;4851832;29;20240;-68
2022/06/09 05:03:04;;;;;;;13.87;6.70;;;;;15.50;100438.00;;;;4847700;29;20243;-68
2022/06/09 05:05:52;;;;;;;11.97;6.40;;;;;15.60;100436.00;;;;4852198;29;20235;-68
2022/06/09 05:08:38;;;;;;;14.43;7.40;;;;;15.60;100448.00;;;;4853162;29;20277;-68
2022/06/09 05:11:27;;;;;;;15.90;6.67;;;;;15.60;100453.00;;;;4858284;29;20238;-68
2022/06/09 05:14:13;;;;;;;15.90;7.20;;;;;15.70;100455.00;;;;4847878;29;20263;-68
2022/06/09 05:16:59;;;;;;;21.37;7.17;;;;;15.70;100465.00;;;;4852366;29;20350;-69
2022/06/09 05:19:46;;;;;;;17.63;7.83;;;;;15.90;100464.00;;;;4851468;29;20614;-69
2022/06/09 05:22:32;;;;;;;12.67;7.47;;;;;15.90;100474.00;;;;4851505;29;20302;-70
2022/06/09 05:25:19;;;;;;;17.97;8.03;;;;;15.90;100473.00;;;;4847591;29;20719;-69
2022/06/09 05:28:07;;;;;;;18.87;8.20;;;;;15.90;100485.00;;;;4842832;29;20268;-69
2022/06/09 05:30:53;;;;;;;19.13;7.53;;;;;16.00;100481.00;;;;4851548;29;20255;-69
2022/06/09 05:33:40;;;;;;;17.70;7.80;;;;;16.00;100489.00;;;;4851563;29;20381;-69
2022/06/09 05:36:27;;;;;;;16.27;8.90;;;;;16.00;100486.00;;;;4852448;29;20246;-68
2022/06/09 05:45:22;;;;;;;15.60;8.90;;;;;16.20;100492.00;;;;4850114;29;20232;-68
2022/06/09 05:48:09;;;;;;;22.73;9.60;;;;;16.30;100481.00;;;;4842521;29;20237;-69
2022/06/09 05:50:56;;;;;;;26.50;10.23;;;;;16.40;100489.00;;;;4850609;29;20271;-68
2022/06/09 05:53:43;;;;;;;16.10;8.93;;;;;16.30;100500.00;;;;4850472;29;20397;-68
2022/06/09 05:56:29;;;;;;;24.53;9.13;;;;;16.30;100502.00;;;;4851604;29;20241;-68
2022/06/09 05:59:16;;;;;;;18.93;10.07;;;;;16.40;100506.00;;;;4845357;29;20285;-68
2022/06/09 06:02:04;;;;;;;17.07;9.33;;;;;16.40;100503.00;;;;4852175;29;20742;-68
2022/06/09 06:04:51;;;;;;;22.57;9.07;;;;;16.40;100511.00;;;;4850459;29;20249;-68
2022/06/09 06:07:38;;;;;;;18.20;9.70;;;;;16.50;100525.00;;;;4854047;29;20237;-68
2022/06/09 06:10:24;;;;;;;20.90;9.90;;;;;16.40;100531.00;;;;4855748;29;20322;-68
2022/06/09 06:13:12;;;;;;;21.87;10.30;;;;;16.50;100538.00;;;;4855376;29;20232;-68
2022/06/09 06:15:58;;;;;;;16.87;9.77;;;;;16.50;100537.00;;;;4855842;29;20446;-68
2022/06/09 06:18:55;;;;;;;20.23;10.67;;;;;16.50;100531.00;;;;4854143;29;20362;-68
2022/06/09 06:21:42;;;;;;;19.60;10.27;;;;;16.50;100537.00;;;;4853637;29;20245;-69
2022/06/09 06:24:29;;;;;;;20.70;9.70;;;;;16.60;100541.00;;;;4852230;29;20313;-68
2022/06/09 06:27:15;;;;;;;24.13;11.57;;;;;16.50;100542.00;;;;4849609;29;20868;-68
2022/06/09 06:30:22;;;;;;;28.20;11.70;;;;;16.60;100556.00;;;;4850539;29;20907;-69
2022/06/09 06:33:08;;;;;;;21.30;10.80;;;;;16.60;100559.00;;;;4855046;29;20601;-70
2022/06/09 06:35:56;;;;;;;19.83;9.63;;;;;16.60;100560.00;;;;4854958;29;20267;-69
2022/06/09 06:38:43;;;;;;;22.70;11.37;;;;;16.80;100560.00;;;;4854675;29;20916;-69
2022/06/09 06:41:30;;;;;;;20.43;10.87;;;;;16.70;100554.00;;;;4855644;29;20730;-69
2022/06/09 06:44:17;;;;;;;24.93;11.17;;;;;16.80;100566.00;;;;4848103;29;20234;-69
2022/06/09 06:47:03;;;;;;;21.73;11.17;;;;;16.90;100569.00;;;;4849545;29;20406;-70
2022/06/09 06:49:51;;;;;;;22.23;11.33;;;;;17.00;100576.00;;;;4851406;29;20262;-69
2022/06/09 06:52:39;;;;;;;23.30;11.03;;;;;17.00;100567.00;;;;4853832;29;20730;-69
2022/06/09 06:55:25;;;;;;;22.57;11.20;;;;;17.10;100595.00;;;;4855570;29;20249;-69
2022/06/09 06:58:15;;;;;;;26.87;10.57;;;;;17.10;100595.00;;;;4849693;29;20242;-69
2022/06/09 07:01:02;;;;;;;21.03;10.20;;;;;17.00;100598.00;;;;4850685;29;20272;-69
2022/06/09 07:03:49;;;;;;;22.43;10.80;;;;;17.00;100597.00;;;;4853323;29;20254;-69
2022/06/09 07:06:35;;;;;;;17.57;10.27;;;;;16.90;100595.00;;;;4853267;29;20254;-69
2022/06/09 07:09:22;;;;;;;21.57;10.53;;;;;16.90;100603.00;;;;4854509;29;20234;-69
2022/06/09 07:12:10;;;;;;;22.30;11.63;;;;;17.10;100609.00;;;;4846707;29;20233;-69
2022/06/09 07:14:56;;;;;;;20.87;10.13;;;;;17.30;100613.00;;;;4854593;29;20380;-69
2022/06/09 07:17:42;;;;;;;23.30;10.87;;;;;17.50;100617.00;;;;4853128;29;20245;-68
2022/06/09 07:20:29;;;;;;;20.67;10.63;;;;;17.60;100631.00;;;;4850614;29;20842;-69
2022/06/09 07:23:15;;;;;;;20.00;10.43;;;;;17.70;100638.00;;;;4850082;29;20232;-69
2022/06/09 07:26:03;;;;;;;21.33;11.23;;;;;17.80;100641.00;;;;4850804;29;20602;-69
2022/06/09 07:28:50;;;;;;;21.93;10.83;;;;;17.90;100639.00;;;;4853571;29;20363;-69
2022/06/09 07:31:36;;;;;;;20.57;11.07;;;;;17.70;100645.00;;;;4854680;29;20376;-69
2022/06/09 07:34:22;;;;;;;20.90;9.50;;;;;17.80;100649.00;;;;4849510;29;20257;-69
2022/06/09 07:37:09;;;;;;;15.80;10.13;;;;;17.60;100655.00;;;;4851558;29;20241;-69
2022/06/09 07:39:55;;;;;;;19.93;9.57;;;;;17.80;100653.00;;;;4854257;29;20657;-69
2022/06/09 07:42:43;;;;;;;19.27;10.43;;;;;18.10;100652.00;;;;4851303;29;20595;-70
2022/06/09 07:45:30;;;;;;;16.70;9.77;;;;;18.20;100657.00;;;;4850331;29;20312;-68
2022/06/09 07:48:18;;;;;;;22.00;9.87;;;;;18.50;100658.00;;;;4851420;29;20227;-69
2022/06/09 07:51:25;;;;;;;19.13;9.40;;;;;18.40;100663.00;;;;4852712;29;20242;-71
2022/06/09 07:54:12;;;;;;;18.67;9.20;;;;;18.60;100666.00;;;;4851667;29;20249;-69
2022/06/09 07:56:58;;;;;;;17.20;9.33;;;;;18.80;100664.00;;;;4851899;29;20236;-69
2022/06/09 07:59:46;;;;;;;20.90;9.03;;;;;18.70;100658.00;;;;4852541;29;20241;-68
2022/06/09 08:02:32;;;;;;;15.03;8.67;;;;;18.80;100667.00;;;;4853488;29;20316;-69
2022/06/09 08:05:22;;;;;;;18.70;8.87;;;;;19.10;100677.00;;;;4853547;29;20251;-68
2022/06/09 08:08:08;;;;;;;15.27;8.10;;;;;19.10;100672.00;;;;4848316;29;20238;-68
2022/06/09 08:10:54;;;;;;;15.27;8.37;;;;;19.10;100682.00;;;;4853884;29;21140;-69
2022/06/09 08:13:41;;;;;;;14.97;7.87;;;;;19.20;100677.00;;;;4850897;29;20246;-68
2022/06/09 08:16:30;;;;;;;13.87;8.10;;;;;19.00;100691.00;;;;4849335;29;20365;-69
2022/06/09 08:19:16;;;;;;;17.27;7.93;;;;;19.00;100686.00;;;;4849082;29;20247;-68
2022/06/09 08:22:03;;;;;;;12.33;7.43;;;;;19.30;100692.00;;;;4847704;29;20238;-69
2022/06/09 08:24:49;;;;;;;15.40;7.77;;;;;19.50;100698.00;;;;4853604;29;20718;-68
2022/06/09 08:27:36;;;;;;;14.00;6.83;;;;;19.50;100701.00;;;;4851907;29;20231;-68
2022/06/09 08:30:23;;;;;;;11.90;7.50;;;;;19.30;100705.00;;;;4847055;29;20616;-68
2022/06/09 08:33:11;;;;;;;12.60;6.57;;;;;19.40;100713.00;;;;4852699;29;20744;-68
2022/06/09 08:35:57;;;;;;;13.10;6.97;;;;;19.80;100712.00;;;;4853262;29;20860;-69
2022/06/09 08:38:46;;;;;;;13.83;6.60;;;;;20.20;100722.00;;;;4851548;29;20260;-69
2022/06/09 08:41:38;;;;;;;12.77;6.73;;;;;20.10;100726.00;;;;4853016;29;20259;-68
2022/06/09 08:44:39;;;;;;;14.73;6.80;;;;;20.40;100728.00;;;;4844891;29;20610;-69
2022/06/09 08:47:34;;;;;;;10.90;5.83;;;;;20.30;100726.00;;;;4843074;29;20239;-68
2022/06/09 08:50:27;;;;;;;8.93;5.90;;;;;20.30;100722.00;;;;4847237;29;20315;-69
2022/06/09 08:53:17;;;;;;;9.50;5.70;;;;;19.90;100729.00;;;;4850150;29;20239;-69
2022/06/09 08:56:13;;;;;;;9.97;6.13;;;;;19.90;100733.00;;;;4842182;29;20795;-68
2022/06/09 08:59:02;;;;;;;12.17;5.73;;;;;20.20;100731.00;;;;4850478;29;20317;-69
2022/06/09 09:01:55;;;;;;;9.17;5.50;;;;;20.60;100727.00;;;;4851252;29;20243;-69
2022/06/09 09:04:46;;;;;;;7.67;4.70;;;;;20.70;100729.00;;;;4852204;29;20231;-68
2022/06/09 09:07:36;;;;;;;8.13;5.07;;;;;20.50;100735.00;;;;4851312;29;20737;-69
2022/06/09 09:10:27;;;;;;;10.10;5.47;;;;;20.50;100731.00;;;;4851915;29;20272;-69
2022/06/09 09:13:44;;;;;;;10.33;5.00;;;;;20.70;100727.00;;;;4848744;29;20261;-69
2022/06/09 09:16:36;;;;;;;11.07;5.43;;;;;20.90;100728.00;;;;4848163;29;20255;-68
2022/06/09 09:19:34;;;;;;;8.53;5.10;;;;;20.90;100728.00;;;;4846768;29;20360;-68
2022/06/09 09:22:28;;;;;;;8.40;5.00;;;;;21.10;100732.00;;;;4851727;29;20235;-68
2022/06/09 09:25:24;;;;;;;8.97;5.43;;;;;21.40;100736.00;;;;4849535;29;20251;-69
2022/06/09 09:28:17;;;;;;;9.17;5.20;;;;;21.50;100738.00;;;;4852809;29;20328;-69
2022/06/09 09:31:23;;;;;;;5.87;4.40;;;;;21.60;100730.00;;;;4850978;29;20247;-68
2022/06/09 09:34:16;;;;;;;15.53;10.07;;;;;21.90;100736.00;;;;4851811;29;20848;-68
2022/06/09 09:37:17;;;;;;;6.77;4.90;;;;;21.50;100742.00;;;;4850822;29;20239;-69
2022/06/09 09:40:17;;;;;;;12.77;4.83;;;;;21.30;100747.00;;;;4852159;29;20247;-69
2022/06/09 09:43:10;;;;;;;11.10;4.70;;;;;21.20;100747.00;;;;4853069;29;20335;-69
2022/06/09 09:46:03;;;;;;;8.03;5.10;;;;;21.10;100756.00;;;;4850006;29;20264;-69
2022/06/09 09:48:50;;;;;;;5.47;4.20;;;;;20.90;100752.00;;;;4856201;29;20234;-69
2022/06/09 09:51:39;;;;;;;7.00;4.73;;;;;20.70;100762.00;;;;4852258;29;20246;-68
2022/06/09 09:54:28;;;;;;;7.73;5.10;;;;;20.40;100779.00;;;;4855081;29;20235;-69
2022/06/09 09:57:17;;;;;;;8.97;5.37;;;;;20.30;100775.00;;;;4851707;29;20628;-69
2022/06/09 10:00:26;;;;;;;10.13;5.20;;;;;20.30;100777.00;;;;4854539;29;20688;-69
2022/06/09 10:09:48;;;;;;;9.23;4.80;;;;;20.70;100789.00;;;;4854040;29;21023;-69
2022/06/09 10:12:53;;;;;;;8.13;4.50;;;;;20.30;100796.00;;;;4853484;29;20247;-67
2022/06/09 10:15:42;;;;;;;9.23;5.40;;;;;19.90;100801.00;;;;4851905;29;20329;-68
2022/06/09 10:18:51;;;;;;;7.47;4.77;;;;;19.60;100813.00;;;;4852083;29;20272;-68
2022/06/09 10:21:59;;;;;;;7.50;5.00;;;;;19.50;100819.00;;;;4853700;29;20284;-67
2022/06/09 10:25:14;;;;;;;9.03;5.63;;;;;19.60;100820.00;;;;4845805;29;20913;-68
2022/06/09 10:28:18;;;;;;;7.17;5.53;;;;;19.60;100815.00;;;;4854372;29;20247;-68
2022/06/09 10:31:12;;;;;;;5.33;3.50;;;;;19.50;100846.00;;;;4852295;29;20236;-67
2022/06/09 10:34:05;;;;;;;2.90;2.57;;;;;19.00;100839.00;;;;4853241;29;20228;-69
2022/06/09 10:36:57;;;;;;;2.37;2.17;;;;;18.30;100857.00;;;;4851911;29;20744;-68
2022/06/09 10:39:49;;;;;;;2.70;1.93;;;;;17.90;100866.00;;;;4855339;29;20312;-68
2022/06/09 10:42:41;;;;;;;2.47;2.00;;;;;17.60;100887.00;;;;4849348;29;20249;-68
2022/06/09 10:45:33;;;;;;;4.73;2.47;;;;;17.30;100886.00;;;;4853532;29;20235;-68
2022/06/09 10:58:01;;;;;;;5.37;2.00;;;;;17.00;100909.00;;;;4853508;29;20263;-67
2022/06/09 11:00:50;;;;;;;1.80;1.70;;;;;17.10;100903.00;;;;4853160;29;20878;-67
2022/06/09 11:03:47;;;;;;;4.53;2.00;;;;;17.10;100901.00;;;;4854649;29;20239;-68
2022/06/09 11:06:51;;;;;;;1.90;1.70;;;;;17.20;100909.00;;;;4850449;29;20373;-67
2022/06/09 11:09:49;;;;;;;2.43;1.90;;;;;17.30;100907.00;;;;4854733;29;20252;-67
2022/06/09 11:12:57;;;;;;;2.33;1.90;;;;;17.70;100907.00;;;;4849992;29;20305;-69
2022/06/09 11:15:50;;;;;;;1.97;1.60;;;;;17.80;100901.00;;;;4854111;29;20236;-69
2022/06/09 11:18:44;;;;;;;1.97;1.80;;;;;18.10;100909.00;;;;4852738;29;20770;-70
2022/06/09 11:21:37;;;;;;;2.73;1.63;;;;;18.40;100909.00;;;;4852851;29;20243;-69
2022/06/09 11:24:31;;;;;;;1.67;1.57;;;;;18.30;100900.00;;;;4853974;29;20327;-69
2022/06/09 11:27:29;;;;;;;1.83;1.50;;;;;18.40;100911.00;;;;4850570;29;20267;-68
2022/06/09 11:30:26;;;;;;;2.93;1.70;;;;;18.50;100909.00;;;;4853644;29;20353;-67
2022/06/09 11:33:25;;;;;;;2.23;1.63;;;;;18.60;100919.00;;;;4853104;29;20311;-67
2022/06/09 11:36:19;;;;;;;3.30;2.10;;;;;18.80;100915.00;;;;4853628;29;20393;-68
2022/06/09 11:39:21;;;;;;;2.27;2.07;;;;;19.00;100918.00;;;;4852322;29;20404;-68
2022/06/09 11:42:18;;;;;;;1.90;1.70;;;;;19.20;100929.00;;;;4851794;29;20687;-68
2022/06/09 11:45:22;;;;;;;2.90;2.10;;;;;19.40;100936.00;;;;4852141;29;20350;-67
2022/06/09 11:48:14;;;;;;;4.37;1.80;;;;;19.60;100937.00;;;;4852286;29;20238;-70
2022/06/09 11:51:03;;;;;;;2.40;1.93;;;;;19.70;100930.00;;;;4851904;29;20312;-69
2022/06/09 11:53:53;;;;;;;2.13;1.90;;;;;19.90;100936.00;;;;4850283;29;20239;-69
2022/06/09 11:56:43;;;;;;;3.73;2.80;;;;;20.10;100926.00;;;;4851207;29;20625;-68
2022/06/09 11:59:55;;;;;;;6.10;2.80;;;;;20.20;100929.00;;;;4850186;29;20267;-68
2022/06/09 12:03:10;;;;;;;3.47;2.47;;;;;20.20;100930.00;;;;4849215;29;20308;-68
2022/06/09 12:06:00;;;;;;;3.50;2.87;;;;;20.40;100914.00;;;;4850945;29;20243;-68
2022/06/09 12:08:59;;;;;;;5.10;3.30;;;;;20.80;100924.00;;;;4852088;29;20236;-67
2022/06/09 12:11:58;;;;;;;4.57;2.80;;;;;21.70;100925.00;;;;4853172;29;20243;-67
2022/06/09 12:14:45;;;;;;;2.03;1.80;;;;;22.00;100931.00;;;;4848317;29;20240;-67
2022/06/09 12:17:33;;;;;;;3.37;2.10;;;;;22.10;100948.00;;;;4846878;29;20607;-68
2022/06/09 12:20:28;;;;;;;4.00;3.47;;;;;21.70;100956.00;;;;4852766;29;20236;-67
2022/06/09 12:23:28;;;;;;;3.53;1.70;;;;;21.10;100964.00;;;;4852984;29;21083;-67
2022/06/09 12:26:50;;;;;;;2.33;1.80;;;;;20.90;100973.00;;;;4851585;29;20296;-69
2022/06/09 12:29:43;;;;;;;1.70;1.60;;;;;20.70;100985.00;;;;4850667;29;20287;-68
2022/06/09 12:32:45;;;;;;;1.80;1.40;;;;;20.70;100988.00;;;;4852614;29;20821;-69
2022/06/09 12:35:35;;;;;;;3.70;1.67;;;;;20.90;100987.00;;;;4850573;29;20250;-70
2022/06/09 12:38:26;;;;;;;1.40;1.30;;;;;21.10;100989.00;;;;4852755;29;20255;-68
2022/06/09 12:41:23;;;;;;;1.60;1.30;;;;;21.00;100999.00;;;;4851693;29;20312;-69
2022/06/09 12:44:26;;;;;;;2.63;1.60;;;;;20.80;101009.00;;;;4850843;29;20600;-68
2022/06/09 12:47:16;;;;;;;3.87;1.73;;;;;20.40;101003.00;;;;4851152;29;20239;-68
2022/06/09 12:50:23;;;;;;;1.70;1.57;;;;;20.10;100995.00;;;;4840413;29;20239;-68
2022/06/09 12:53:19;;;;;;;2.47;1.47;;;;;19.70;101007.00;;;;4851034;29;20231;-67
2022/06/09 12:56:20;;;;;;;2.03;1.50;;;;;19.60;101013.00;;;;4851213;29;20235;-67
2022/06/09 12:59:20;;;;;;;1.70;1.50;;;;;19.60;101012.00;;;;4849782;29;20254;-68
2022/06/09 13:02:21;;;;;;;1.70;1.60;;;;;19.50;101007.00;;;;4851374;29;20308;-68
2022/06/09 13:05:20;;;;;;;2.30;1.70;;;;;19.60;101013.00;;;;4850202;29;21715;-67
2022/06/09 13:08:16;;;;;;;2.63;1.73;;;;;19.50;101025.00;;;;4852421;29;20341;-68
2022/06/09 13:11:05;;;;;;;2.40;1.73;;;;;19.40;101023.00;;;;4850870;29;20752;-67
2022/06/09 13:13:52;;;;;;;1.87;1.70;;;;;19.30;101021.00;;;;4851555;29;20235;-68
2022/06/09 13:16:44;;;;;;;4.00;1.80;;;;;19.50;101026.00;;;;4851769;29;20614;-67
2022/06/09 13:19:31;;;;;;;2.50;2.00;;;;;19.30;101031.00;;;;4849653;29;20712;-68
2022/06/09 13:22:19;;;;;;;1.73;1.60;;;;;19.40;101035.00;;;;4850711;29;20749;-68
2022/06/09 13:25:11;;;;;;;2.67;1.93;;;;;19.60;101025.00;;;;4849706;29;20227;-70
2022/06/09 13:27:59;;;;;;;3.60;2.20;;;;;20.00;101023.00;;;;4851147;29;20239;-68
2022/06/09 13:30:50;;;;;;;1.80;1.70;;;;;20.10;101031.00;;;;4849312;29;20255;-68
2022/06/09 13:33:53;;;;;;;2.70;1.63;;;;;20.40;101036.00;;;;4852371;29;20756;-67
2022/06/09 13:37:02;;;;;;;2.07;1.80;;;;;20.40;101037.00;;;;4853113;29;20266;-69
2022/06/09 13:39:51;;;;;;;2.37;1.77;;;;;20.40;101044.00;;;;4851287;29;20243;-68
2022/06/09 13:42:48;;;;;;;1.90;1.77;;;;;20.60;101037.00;;;;4852645;29;20240;-67
2022/06/09 13:45:35;;;;;;;3.53;1.90;;;;;20.70;101034.00;;;;4846085;29;20236;-70
2022/06/09 13:48:25;;;;;;;2.07;1.83;;;;;21.10;101049.00;;;;4848947;29;20243;-69
2022/06/09 13:51:23;;;;;;;2.53;2.10;;;;;21.10;101045.00;;;;4850897;29;20318;-67
2022/06/09 13:54:17;;;;;;;3.43;2.20;;;;;21.00;101044.00;;;;4849926;29;20726;-67
2022/06/09 13:57:12;;;;;;;3.03;2.20;;;;;20.90;101044.00;;;;4847809;29;20316;-67
2022/06/09 14:00:00;;;;;;;2.23;2.03;;;;;20.80;101047.00;;;;4851410;29;20350;-68
2022/06/09 14:02:53;;;;;;;2.77;2.30;;;;;20.70;101048.00;;;;4848242;29;20286;-68
2022/06/09 14:05:49;;;;;;;2.13;1.80;;;;;20.60;101045.00;;;;4848899;29;20246;-68
2022/06/09 14:08:39;;;;;;;2.73;2.33;;;;;20.60;101049.00;;;;4845341;29;20342;-68
2022/06/09 14:11:28;;;;;;;2.60;1.90;;;;;20.70;101061.00;;;;4852010;29;20240;-69
2022/06/09 14:14:15;;;;;;;3.03;2.73;;;;;20.70;101064.00;;;;4848970;29;20248;-70
2022/06/09 14:17:02;;;;;;;5.20;2.27;;;;;21.00;101070.00;;;;4848816;29;20233;-69
2022/06/09 14:19:48;;;;;;;3.10;2.17;;;;;21.70;101074.00;;;;4848512;29;20265;-70
2022/06/09 14:22:34;;;;;;;3.40;2.60;;;;;23.00;101074.00;;;;4847382;29;20245;-67